sensor_id;sensor_type;location;lat;lon;timestamp;temperature;humidity
71039;SHT30;58692;43.212;27.908;2023-03-23T00:01:32;8.66;96.13
71039;SHT30;58692;43.212;27.908;2023-03-23T00:04:02;8.58;96.46
71039;SHT30;58692;43.212;27.908;2023-03-23T00:06:28;8.61;96.58
71039;SHT30;58692;43.212;27.908;2023-03-23T00:09:00;8.65;96.53
71039;SHT30;58692;43.212;27.908;2023-03-23T00:11:30;8.62;96.67
71039;SHT30;58692;43.212;27.908;2023-03-23T00:13:57;8.69;96.27
71039;SHT30;58692;43.212;27.908;2023-03-23T00:16:25;8.71;96.48
71039;SHT30;58692;43.212;27.908;2023-03-23T00:19:00;8.73;96.51
71039;SHT30;58692;43.212;27.908;2023-03-23T00:21:31;8.71;96.71
71039;SHT30;58692;43.212;27.908;2023-03-23T00:24:04;8.66;96.67
71039;SHT30;58692;43.212;27.908;2023-03-23T00:26:31;8.59;96.98
71039;SHT30;58692;43.212;27.908;2023-03-23T00:29:00;8.65;96.82
71039;SHT30;58692;43.212;27.908;2023-03-23T00:31:26;8.59;97.16
71039;SHT30;58692;43.212;27.908;2023-03-23T00:33:57;8.61;96.79
71039;SHT30;58692;43.212;27.908;2023-03-23T00:36:24;8.62;97.12
71039;SHT30;58692;43.212;27.908;2023-03-23T00:38:50;8.52;97.38
71039;SHT30;58692;43.212;27.908;2023-03-23T00:41:15;8.49;97.53
71039;SHT30;58692;43.212;27.908;2023-03-23T00:43:41;8.58;97.23
71039;SHT30;58692;43.212;27.908;2023-03-23T00:46:06;8.58;97.24
71039;SHT30;58692;43.212;27.908;2023-03-23T00:48:36;8.55;97.44
71039;SHT30;58692;43.212;27.908;2023-03-23T00:51:02;8.59;97.33
71039;SHT30;58692;43.212;27.908;2023-03-23T00:53:32;8.59;97.26
71039;SHT30;58692;43.212;27.908;2023-03-23T00:55:58;8.55;97.31
71039;SHT30;58692;43.212;27.908;2023-03-23T00:58:23;8.62;97.34
71039;SHT30;58692;43.212;27.908;2023-03-23T01:00:49;8.64;97.23
71039;SHT30;58692;43.212;27.908;2023-03-23T01:03:15;8.68;97.15
71039;SHT30;58692;43.212;27.908;2023-03-23T01:05:44;8.72;97.18
71039;SHT30;58692;43.212;27.908;2023-03-23T01:08:13;8.75;97.00
71039;SHT30;58692;43.212;27.908;2023-03-23T01:10:39;8.75;97.03
71039;SHT30;58692;43.212;27.908;2023-03-23T01:13:06;8.75;97.10
71039;SHT30;58692;43.212;27.908;2023-03-23T01:15:31;8.80;97.06
71039;SHT30;58692;43.212;27.908;2023-03-23T01:17:57;8.78;97.07
71039;SHT30;58692;43.212;27.908;2023-03-23T01:20:24;8.80;97.06
71039;SHT30;58692;43.212;27.908;2023-03-23T01:22:51;8.80;97.04
71039;SHT30;58692;43.212;27.908;2023-03-23T01:25:18;8.82;96.98
71039;SHT30;58692;43.212;27.908;2023-03-23T01:27:44;8.83;97.01
71039;SHT30;58692;43.212;27.908;2023-03-23T01:30:11;8.83;97.03
71039;SHT30;58692;43.212;27.908;2023-03-23T01:32:38;8.78;97.08
71039;SHT30;58692;43.212;27.908;2023-03-23T01:35:03;8.68;97.16
71039;SHT30;58692;43.212;27.908;2023-03-23T01:37:30;8.76;97.18
71039;SHT30;58692;43.212;27.908;2023-03-23T01:39:56;8.75;97.14
71039;SHT30;58692;43.212;27.908;2023-03-23T01:42:24;8.73;97.22
71039;SHT30;58692;43.212;27.908;2023-03-23T01:47:17;8.80;97.19
71039;SHT30;58692;43.212;27.908;2023-03-23T01:49:49;8.79;97.33
71039;SHT30;58692;43.212;27.908;2023-03-23T01:52:20;8.79;97.38
71039;SHT30;58692;43.212;27.908;2023-03-23T01:54:49;8.80;97.22
71039;SHT30;58692;43.212;27.908;2023-03-23T01:57:17;8.73;97.29
71039;SHT30;58692;43.212;27.908;2023-03-23T01:59:46;8.79;97.16
71039;SHT30;58692;43.212;27.908;2023-03-23T02:02:14;8.79;97.05
71039;SHT30;58692;43.212;27.908;2023-03-23T02:04:40;8.75;97.14
71039;SHT30;58692;43.212;27.908;2023-03-23T02:07:07;8.75;97.24
71039;SHT30;58692;43.212;27.908;2023-03-23T02:09:33;8.76;97.15
71039;SHT30;58692;43.212;27.908;2023-03-23T02:11:58;8.79;97.16
71039;SHT30;58692;43.212;27.908;2023-03-23T02:14:26;8.79;97.16
71039;SHT30;58692;43.212;27.908;2023-03-23T02:22:30;8.79;97.07
71039;SHT30;58692;43.212;27.908;2023-03-23T02:31:25;8.79;97.04
71039;SHT30;58692;43.212;27.908;2023-03-23T02:33:59;8.79;97.04
71039;SHT30;58692;43.212;27.908;2023-03-23T02:36:30;8.76;97.03
71039;SHT30;58692;43.212;27.908;2023-03-23T02:39:08;8.73;96.87
71039;SHT30;58692;43.212;27.908;2023-03-23T02:41:39;8.72;96.82
71039;SHT30;58692;43.212;27.908;2023-03-23T02:44:08;8.75;96.88
71039;SHT30;58692;43.212;27.908;2023-03-23T02:46:35;8.78;96.83
71039;SHT30;58692;43.212;27.908;2023-03-23T02:49:03;8.68;97.04
71039;SHT30;58692;43.212;27.908;2023-03-23T02:51:29;8.73;97.00
71039;SHT30;58692;43.212;27.908;2023-03-23T02:53:56;8.73;97.04
71039;SHT30;58692;43.212;27.908;2023-03-23T02:56:25;8.79;96.98
71039;SHT30;58692;43.212;27.908;2023-03-23T02:58:53;8.79;97.06
71039;SHT30;58692;43.212;27.908;2023-03-23T03:04:14;8.79;97.09
71039;SHT30;58692;43.212;27.908;2023-03-23T03:09:42;8.80;97.00
71039;SHT30;58692;43.212;27.908;2023-03-23T03:12:27;8.76;97.00
71039;SHT30;58692;43.212;27.908;2023-03-23T03:15:04;8.78;97.02
71039;SHT30;58692;43.212;27.908;2023-03-23T03:17:31;8.76;97.10
71039;SHT30;58692;43.212;27.908;2023-03-23T03:20:01;8.76;97.11
71039;SHT30;58692;43.212;27.908;2023-03-23T03:22:35;8.72;97.27
71039;SHT30;58692;43.212;27.908;2023-03-23T03:25:03;8.71;97.20
71039;SHT30;58692;43.212;27.908;2023-03-23T03:27:30;8.71;97.10
71039;SHT30;58692;43.212;27.908;2023-03-23T03:29:59;8.66;97.16
71039;SHT30;58692;43.212;27.908;2023-03-23T03:32:32;8.68;97.24
71039;SHT30;58692;43.212;27.908;2023-03-23T03:35:02;8.68;97.32
71039;SHT30;58692;43.212;27.908;2023-03-23T03:37:34;8.65;97.45
71039;SHT30;58692;43.212;27.908;2023-03-23T03:40:05;8.65;97.47
71039;SHT30;58692;43.212;27.908;2023-03-23T03:42:37;8.62;97.40
71039;SHT30;58692;43.212;27.908;2023-03-23T03:45:03;8.66;97.25
71039;SHT30;58692;43.212;27.908;2023-03-23T03:47:28;8.64;97.31
71039;SHT30;58692;43.212;27.908;2023-03-23T03:49:54;8.66;97.37
71039;SHT30;58692;43.212;27.908;2023-03-23T03:52:20;8.71;97.29
71039;SHT30;58692;43.212;27.908;2023-03-23T03:54:45;8.61;97.60
71039;SHT30;58692;43.212;27.908;2023-03-23T03:57:11;8.55;97.68
71039;SHT30;58692;43.212;27.908;2023-03-23T03:59:37;8.58;97.41
71039;SHT30;58692;43.212;27.908;2023-03-23T04:02:02;8.59;97.50
71039;SHT30;58692;43.212;27.908;2023-03-23T04:04:29;8.59;97.58
71039;SHT30;58692;43.212;27.908;2023-03-23T04:06:54;8.56;97.78
71039;SHT30;58692;43.212;27.908;2023-03-23T04:09:20;8.64;97.54
71039;SHT30;58692;43.212;27.908;2023-03-23T04:11:46;8.62;97.80
71039;SHT30;58692;43.212;27.908;2023-03-23T04:14:12;8.61;97.84
71039;SHT30;58692;43.212;27.908;2023-03-23T04:16:37;8.59;97.79
71039;SHT30;58692;43.212;27.908;2023-03-23T04:19:03;8.61;97.73
71039;SHT30;58692;43.212;27.908;2023-03-23T04:21:29;8.61;97.86
71039;SHT30;58692;43.212;27.908;2023-03-23T04:23:56;8.68;97.61
71039;SHT30;58692;43.212;27.908;2023-03-23T04:26:26;8.71;97.72
71039;SHT30;58692;43.212;27.908;2023-03-23T04:28:54;8.59;98.32
71039;SHT30;58692;43.212;27.908;2023-03-23T04:31:20;8.69;97.88
71039;SHT30;58692;43.212;27.908;2023-03-23T04:33:46;8.68;97.86
71039;SHT30;58692;43.212;27.908;2023-03-23T04:36:12;8.68;97.68
71039;SHT30;58692;43.212;27.908;2023-03-23T04:38:41;8.71;97.68
71039;SHT30;58692;43.212;27.908;2023-03-23T04:41:08;8.76;97.67
71039;SHT30;58692;43.212;27.908;2023-03-23T04:43:33;8.82;97.51
71039;SHT30;58692;43.212;27.908;2023-03-23T04:46:07;8.78;97.56
71039;SHT30;58692;43.212;27.908;2023-03-23T04:48:34;8.73;97.43
71039;SHT30;58692;43.212;27.908;2023-03-23T04:51:02;8.72;97.49
71039;SHT30;58692;43.212;27.908;2023-03-23T04:53:30;8.68;97.53
71039;SHT30;58692;43.212;27.908;2023-03-23T04:55:56;8.73;97.49
71039;SHT30;58692;43.212;27.908;2023-03-23T04:58:22;8.76;97.47
71039;SHT30;58692;43.212;27.908;2023-03-23T05:00:50;8.82;97.37
71039;SHT30;58692;43.212;27.908;2023-03-23T05:03:17;8.82;97.46
71039;SHT30;58692;43.212;27.908;2023-03-23T05:05:43;8.78;97.40
71039;SHT30;58692;43.212;27.908;2023-03-23T05:08:13;8.83;97.43
71039;SHT30;58692;43.212;27.908;2023-03-23T05:10:38;8.86;97.30
71039;SHT30;58692;43.212;27.908;2023-03-23T05:13:04;8.89;97.34
71039;SHT30;58692;43.212;27.908;2023-03-23T05:15:30;8.85;97.27
71039;SHT30;58692;43.212;27.908;2023-03-23T05:17:55;8.90;97.29
71039;SHT30;58692;43.212;27.908;2023-03-23T05:20:21;8.92;97.07
71039;SHT30;58692;43.212;27.908;2023-03-23T05:22:47;8.93;97.22
71039;SHT30;58692;43.212;27.908;2023-03-23T05:25:16;9.02;96.93
71039;SHT30;58692;43.212;27.908;2023-03-23T05:27:44;9.09;96.83
71039;SHT30;58692;43.212;27.908;2023-03-23T05:30:18;9.12;96.76
71039;SHT30;58692;43.212;27.908;2023-03-23T05:32:44;9.17;96.50
71039;SHT30;58692;43.212;27.908;2023-03-23T05:35:11;9.20;96.34
71039;SHT30;58692;43.212;27.908;2023-03-23T05:37:38;9.24;96.23
71039;SHT30;58692;43.212;27.908;2023-03-23T05:40:04;9.17;96.08
71039;SHT30;58692;43.212;27.908;2023-03-23T05:42:33;9.17;96.00
71039;SHT30;58692;43.212;27.908;2023-03-23T05:44:59;9.23;95.86
71039;SHT30;58692;43.212;27.908;2023-03-23T05:47:29;9.33;95.67
71039;SHT30;58692;43.212;27.908;2023-03-23T05:49:55;9.34;95.57
71039;SHT30;58692;43.212;27.908;2023-03-23T05:52:21;9.40;95.46
71039;SHT30;58692;43.212;27.908;2023-03-23T05:54:49;9.27;95.44
71039;SHT30;58692;43.212;27.908;2023-03-23T05:57:28;9.26;95.96
71039;SHT30;58692;43.212;27.908;2023-03-23T05:59:54;9.16;96.55
71039;SHT30;58692;43.212;27.908;2023-03-23T06:02:25;9.17;96.30
71039;SHT30;58692;43.212;27.908;2023-03-23T06:05:00;9.06;96.40
71039;SHT30;58692;43.212;27.908;2023-03-23T06:07:26;9.22;96.18
71039;SHT30;58692;43.212;27.908;2023-03-23T06:09:52;9.36;95.97
71039;SHT30;58692;43.212;27.908;2023-03-23T06:12:34;9.36;95.71
71039;SHT30;58692;43.212;27.908;2023-03-23T06:15:01;9.33;95.43
71039;SHT30;58692;43.212;27.908;2023-03-23T06:17:46;9.39;95.26
71039;SHT30;58692;43.212;27.908;2023-03-23T06:20:12;9.50;95.39
71039;SHT30;58692;43.212;27.908;2023-03-23T06:22:39;9.41;95.60
71039;SHT30;58692;43.212;27.908;2023-03-23T06:25:10;9.44;95.55
71039;SHT30;58692;43.212;27.908;2023-03-23T06:27:38;9.40;95.62
71039;SHT30;58692;43.212;27.908;2023-03-23T06:30:05;9.51;95.48
71039;SHT30;58692;43.212;27.908;2023-03-23T06:32:32;9.51;95.51
71039;SHT30;58692;43.212;27.908;2023-03-23T06:34:58;9.48;95.59
71039;SHT30;58692;43.212;27.908;2023-03-23T06:37:24;9.54;95.53
71039;SHT30;58692;43.212;27.908;2023-03-23T06:39:50;9.61;95.28
71039;SHT30;58692;43.212;27.908;2023-03-23T06:42:17;9.58;95.14
71039;SHT30;58692;43.212;27.908;2023-03-23T06:44:43;9.65;95.15
71039;SHT30;58692;43.212;27.908;2023-03-23T06:47:08;9.68;95.35
71039;SHT30;58692;43.212;27.908;2023-03-23T06:49:34;9.68;95.13
71039;SHT30;58692;43.212;27.908;2023-03-23T06:52:01;9.73;95.23
71039;SHT30;58692;43.212;27.908;2023-03-23T06:54:28;9.74;95.06
71039;SHT30;58692;43.212;27.908;2023-03-23T06:56:54;9.80;94.77
71039;SHT30;58692;43.212;27.908;2023-03-23T06:59:20;9.82;94.81
71039;SHT30;58692;43.212;27.908;2023-03-23T07:01:46;9.77;95.18
71039;SHT30;58692;43.212;27.908;2023-03-23T07:04:14;9.73;95.14
71039;SHT30;58692;43.212;27.908;2023-03-23T07:06:41;9.71;95.21
71039;SHT30;58692;43.212;27.908;2023-03-23T07:09:09;9.82;94.78
71039;SHT30;58692;43.212;27.908;2023-03-23T07:11:35;9.68;95.25
71039;SHT30;58692;43.212;27.908;2023-03-23T07:14:01;9.70;94.92
71039;SHT30;58692;43.212;27.908;2023-03-23T07:16:27;9.80;94.36
71039;SHT30;58692;43.212;27.908;2023-03-23T07:18:52;9.84;94.31
71039;SHT30;58692;43.212;27.908;2023-03-23T07:21:18;9.95;93.42
71039;SHT30;58692;43.212;27.908;2023-03-23T07:23:43;10.08;93.31
71039;SHT30;58692;43.212;27.908;2023-03-23T07:26:11;10.08;93.53
71039;SHT30;58692;43.212;27.908;2023-03-23T07:28:41;10.11;93.08
71039;SHT30;58692;43.212;27.908;2023-03-23T07:31:07;10.19;92.78
71039;SHT30;58692;43.212;27.908;2023-03-23T07:33:35;10.19;93.37
71039;SHT30;58692;43.212;27.908;2023-03-23T07:36:02;10.08;93.35
71039;SHT30;58692;43.212;27.908;2023-03-23T07:38:35;10.09;93.18
71039;SHT30;58692;43.212;27.908;2023-03-23T07:41:04;10.33;92.85
71039;SHT30;58692;43.212;27.908;2023-03-23T07:43:30;10.36;91.96
71039;SHT30;58692;43.212;27.908;2023-03-23T07:45:56;10.60;91.90
71039;SHT30;58692;43.212;27.908;2023-03-23T07:48:21;10.74;91.63
71039;SHT30;58692;43.212;27.908;2023-03-23T07:50:47;10.86;91.05
71039;SHT30;58692;43.212;27.908;2023-03-23T07:53:13;11.07;91.13
71039;SHT30;58692;43.212;27.908;2023-03-23T07:55:39;11.11;89.74
71039;SHT30;58692;43.212;27.908;2023-03-23T07:58:05;11.07;89.79
71039;SHT30;58692;43.212;27.908;2023-03-23T08:00:31;11.16;88.95
71039;SHT30;58692;43.212;27.908;2023-03-23T08:02:58;11.16;88.93
71039;SHT30;58692;43.212;27.908;2023-03-23T08:05:30;11.07;89.11
71039;SHT30;58692;43.212;27.908;2023-03-23T08:07:57;10.99;89.44
71039;SHT30;58692;43.212;27.908;2023-03-23T08:10:23;10.90;90.16
71039;SHT30;58692;43.212;27.908;2023-03-23T08:12:53;10.97;89.54
71039;SHT30;58692;43.212;27.908;2023-03-23T08:15:39;11.00;89.01
71039;SHT30;58692;43.212;27.908;2023-03-23T08:18:12;10.94;89.53
71039;SHT30;58692;43.212;27.908;2023-03-23T08:20:44;10.97;89.50
71039;SHT30;58692;43.212;27.908;2023-03-23T08:23:11;10.92;89.41
71039;SHT30;58692;43.212;27.908;2023-03-23T08:25:37;10.84;89.64
71039;SHT30;58692;43.212;27.908;2023-03-23T08:28:13;10.76;90.31
71039;SHT30;58692;43.212;27.908;2023-03-23T08:30:42;10.76;90.80
71039;SHT30;58692;43.212;27.908;2023-03-23T08:33:08;10.79;90.30
71039;SHT30;58692;43.212;27.908;2023-03-23T08:35:40;10.77;90.37
71039;SHT30;58692;43.212;27.908;2023-03-23T08:38:11;10.74;90.14
71039;SHT30;58692;43.212;27.908;2023-03-23T08:40:46;10.99;89.82
71039;SHT30;58692;43.212;27.908;2023-03-23T08:43:33;10.94;90.01
71039;SHT30;58692;43.212;27.908;2023-03-23T08:45:59;10.94;89.62
71039;SHT30;58692;43.212;27.908;2023-03-23T08:48:25;10.94;88.54
71039;SHT30;58692;43.212;27.908;2023-03-23T08:50:51;11.01;88.81
71039;SHT30;58692;43.212;27.908;2023-03-23T08:53:20;11.03;87.93
71039;SHT30;58692;43.212;27.908;2023-03-23T08:56:07;11.03;88.30
71039;SHT30;58692;43.212;27.908;2023-03-23T08:58:34;11.14;88.00
71039;SHT30;58692;43.212;27.908;2023-03-23T09:01:01;11.17;87.73
71039;SHT30;58692;43.212;27.908;2023-03-23T09:03:28;11.51;87.15
71039;SHT30;58692;43.212;27.908;2023-03-23T09:05:57;11.61;87.10
71039;SHT30;58692;43.212;27.908;2023-03-23T09:08:25;11.62;86.22
71039;SHT30;58692;43.212;27.908;2023-03-23T09:10:51;11.54;86.82
71039;SHT30;58692;43.212;27.908;2023-03-23T09:13:17;11.35;86.89
71039;SHT30;58692;43.212;27.908;2023-03-23T09:16:01;11.41;86.53
71039;SHT30;58692;43.212;27.908;2023-03-23T09:18:30;11.38;87.22
71039;SHT30;58692;43.212;27.908;2023-03-23T09:20:58;11.20;86.42
71039;SHT30;58692;43.212;27.908;2023-03-23T09:26:41;11.52;84.69
71039;SHT30;58692;43.212;27.908;2023-03-23T09:32:12;11.54;86.14
71039;SHT30;58692;43.212;27.908;2023-03-23T09:34:38;11.20;87.36
71039;SHT30;58692;43.212;27.908;2023-03-23T09:40:32;11.18;87.90
71039;SHT30;58692;43.212;27.908;2023-03-23T09:43:29;11.26;87.86
71039;SHT30;58692;43.212;27.908;2023-03-23T09:53:54;10.90;88.73
71039;SHT30;58692;43.212;27.908;2023-03-23T09:56:23;11.06;88.00
71039;SHT30;58692;43.212;27.908;2023-03-23T09:58:57;11.03;87.03
71039;SHT30;58692;43.212;27.908;2023-03-23T10:01:28;11.32;85.47
71039;SHT30;58692;43.212;27.908;2023-03-23T10:04:07;11.52;85.33
71039;SHT30;58692;43.212;27.908;2023-03-23T10:06:37;11.85;84.23
71039;SHT30;58692;43.212;27.908;2023-03-23T10:09:05;12.29;82.37
71039;SHT30;58692;43.212;27.908;2023-03-23T10:11:37;12.26;82.40
71039;SHT30;58692;43.212;27.908;2023-03-23T10:14:20;12.28;83.08
71039;SHT30;58692;43.212;27.908;2023-03-23T10:19:47;13.28;79.25
71039;SHT30;58692;43.212;27.908;2023-03-23T10:22:17;13.75;76.42
71039;SHT30;58692;43.212;27.908;2023-03-23T10:24:51;13.66;77.11
71039;SHT30;58692;43.212;27.908;2023-03-23T10:27:30;13.44;77.66
71039;SHT30;58692;43.212;27.908;2023-03-23T10:30:13;13.12;77.85
71039;SHT30;58692;43.212;27.908;2023-03-23T10:32:50;12.64;79.33
71039;SHT30;58692;43.212;27.908;2023-03-23T10:35:20;12.50;81.24
71039;SHT30;58692;43.212;27.908;2023-03-23T10:37:52;12.84;80.77
71039;SHT30;58692;43.212;27.908;2023-03-23T10:40:24;12.67;80.65
71039;SHT30;58692;43.212;27.908;2023-03-23T10:42:52;12.87;80.57
71039;SHT30;58692;43.212;27.908;2023-03-23T10:45:22;12.81;79.91
71039;SHT30;58692;43.212;27.908;2023-03-23T10:47:54;12.53;79.54
71039;SHT30;58692;43.212;27.908;2023-03-23T10:50:27;12.34;81.19
71039;SHT30;58692;43.212;27.908;2023-03-23T10:52:57;12.41;80.47
71039;SHT30;58692;43.212;27.908;2023-03-23T10:55:24;12.09;80.89
71039;SHT30;58692;43.212;27.908;2023-03-23T10:58:05;12.23;81.42
71039;SHT30;58692;43.212;27.908;2023-03-23T11:00:33;12.13;81.19
71039;SHT30;58692;43.212;27.908;2023-03-23T11:06:01;11.93;81.31
71039;SHT30;58692;43.212;27.908;2023-03-23T11:08:35;11.96;82.28
71039;SHT30;58692;43.212;27.908;2023-03-23T11:11:17;11.69;82.41
71039;SHT30;58692;43.212;27.908;2023-03-23T11:13:47;11.71;82.41
71039;SHT30;58692;43.212;27.908;2023-03-23T11:16:30;11.61;82.31
71039;SHT30;58692;43.212;27.908;2023-03-23T11:18:58;11.48;83.14
71039;SHT30;58692;43.212;27.908;2023-03-23T11:21:24;11.28;83.57
71039;SHT30;58692;43.212;27.908;2023-03-23T11:23:58;11.13;83.20
71039;SHT30;58692;43.212;27.908;2023-03-23T11:26:31;11.04;83.85
71039;SHT30;58692;43.212;27.908;2023-03-23T11:34:16;11.26;84.60
71039;SHT30;58692;43.212;27.908;2023-03-23T11:37:06;11.21;84.45
71039;SHT30;58692;43.212;27.908;2023-03-23T11:43:06;11.35;83.47
71039;SHT30;58692;43.212;27.908;2023-03-23T11:45:34;11.28;84.48
71039;SHT30;58692;43.212;27.908;2023-03-23T11:56:35;11.21;83.60
71039;SHT30;58692;43.212;27.908;2023-03-23T11:59:02;11.20;83.83
71039;SHT30;58692;43.212;27.908;2023-03-23T12:01:42;11.37;83.52
71039;SHT30;58692;43.212;27.908;2023-03-23T12:04:33;11.42;83.45
71039;SHT30;58692;43.212;27.908;2023-03-23T12:15:22;10.90;83.10
71039;SHT30;58692;43.212;27.908;2023-03-23T12:23:27;10.79;83.67
71039;SHT30;58692;43.212;27.908;2023-03-23T12:29:05;10.69;84.70
71039;SHT30;58692;43.212;27.908;2023-03-23T12:34:37;10.55;84.55
71039;SHT30;58692;43.212;27.908;2023-03-23T12:39:38;10.60;85.62
71039;SHT30;58692;43.212;27.908;2023-03-23T12:42:20;10.46;85.42
71039;SHT30;58692;43.212;27.908;2023-03-23T12:44:52;10.48;85.47
71039;SHT30;58692;43.212;27.908;2023-03-23T12:47:31;10.45;85.68
71039;SHT30;58692;43.212;27.908;2023-03-23T12:52:45;10.33;85.73
71039;SHT30;58692;43.212;27.908;2023-03-23T12:55:27;10.38;86.37
71039;SHT30;58692;43.212;27.908;2023-03-23T12:58:01;10.33;85.76
71039;SHT30;58692;43.212;27.908;2023-03-23T13:00:33;10.25;85.86
71039;SHT30;58692;43.212;27.908;2023-03-23T13:05:40;10.32;85.46
71039;SHT30;58692;43.212;27.908;2023-03-23T13:08:16;10.31;86.07
71039;SHT30;58692;43.212;27.908;2023-03-23T13:10:48;10.43;85.73
71039;SHT30;58692;43.212;27.908;2023-03-23T13:13:22;10.57;85.43
71039;SHT30;58692;43.212;27.908;2023-03-23T13:16:12;10.73;84.07
71039;SHT30;58692;43.212;27.908;2023-03-23T13:19:00;10.74;83.81
71039;SHT30;58692;43.212;27.908;2023-03-23T13:21:34;10.89;83.32
71039;SHT30;58692;43.212;27.908;2023-03-23T13:24:06;10.67;83.11
71039;SHT30;58692;43.212;27.908;2023-03-23T13:26:38;10.73;83.24
71039;SHT30;58692;43.212;27.908;2023-03-23T13:29:11;10.89;82.55
71039;SHT30;58692;43.212;27.908;2023-03-23T13:31:39;10.83;83.43
71039;SHT30;58692;43.212;27.908;2023-03-23T13:36:41;10.87;83.61
71039;SHT30;58692;43.212;27.908;2023-03-23T13:39:19;10.84;83.10
71039;SHT30;58692;43.212;27.908;2023-03-23T13:41:49;10.96;83.48
71039;SHT30;58692;43.212;27.908;2023-03-23T13:44:19;10.99;83.06
71039;SHT30;58692;43.212;27.908;2023-03-23T13:47:14;11.26;82.63
71039;SHT30;58692;43.212;27.908;2023-03-23T13:49:50;11.39;82.10
71039;SHT30;58692;43.212;27.908;2023-03-23T13:54:47;11.42;81.67
71039;SHT30;58692;43.212;27.908;2023-03-23T14:00:04;11.57;81.31
71039;SHT30;58692;43.212;27.908;2023-03-23T14:02:37;11.68;80.91
71039;SHT30;58692;43.212;27.908;2023-03-23T14:07:53;11.82;80.58
71039;SHT30;58692;43.212;27.908;2023-03-23T14:10:21;11.68;80.42
71039;SHT30;58692;43.212;27.908;2023-03-23T14:12:50;11.55;81.15
71039;SHT30;58692;43.212;27.908;2023-03-23T14:15:17;11.51;81.12
71039;SHT30;58692;43.212;27.908;2023-03-23T14:17:45;11.38;81.81
71039;SHT30;58692;43.212;27.908;2023-03-23T14:20:29;11.28;81.83
71039;SHT30;58692;43.212;27.908;2023-03-23T14:22:56;11.30;82.04
71039;SHT30;58692;43.212;27.908;2023-03-23T14:25:22;11.07;82.63
71039;SHT30;58692;43.212;27.908;2023-03-23T14:27:51;11.10;82.69
71039;SHT30;58692;43.212;27.908;2023-03-23T14:30:21;11.01;83.17
71039;SHT30;58692;43.212;27.908;2023-03-23T14:32:48;10.80;83.44
71039;SHT30;58692;43.212;27.908;2023-03-23T14:35:30;10.65;84.47
71039;SHT30;58692;43.212;27.908;2023-03-23T14:37:57;10.46;85.08
71039;SHT30;58692;43.212;27.908;2023-03-23T14:40:28;10.56;85.65
71039;SHT30;58692;43.212;27.908;2023-03-23T14:42:54;10.60;86.09
71039;SHT30;58692;43.212;27.908;2023-03-23T14:45:21;10.73;85.64
71039;SHT30;58692;43.212;27.908;2023-03-23T14:47:51;10.73;85.76
71039;SHT30;58692;43.212;27.908;2023-03-23T14:50:29;10.69;85.79
71039;SHT30;58692;43.212;27.908;2023-03-23T14:52:59;10.50;86.70
71039;SHT30;58692;43.212;27.908;2023-03-23T14:55:25;10.35;87.93
71039;SHT30;58692;43.212;27.908;2023-03-23T14:57:54;10.28;88.40
71039;SHT30;58692;43.212;27.908;2023-03-23T15:00:24;10.22;88.38
71039;SHT30;58692;43.212;27.908;2023-03-23T15:02:56;10.25;88.61
71039;SHT30;58692;43.212;27.908;2023-03-23T15:05:27;10.26;88.96
71039;SHT30;58692;43.212;27.908;2023-03-23T15:07:56;10.28;88.58
71039;SHT30;58692;43.212;27.908;2023-03-23T15:10:25;10.26;88.90
71039;SHT30;58692;43.212;27.908;2023-03-23T15:12:51;10.28;88.43
71039;SHT30;58692;43.212;27.908;2023-03-23T15:15:26;10.39;88.47
71039;SHT30;58692;43.212;27.908;2023-03-23T15:17:56;10.48;88.05
71039;SHT30;58692;43.212;27.908;2023-03-23T15:22:50;10.35;88.32
71039;SHT30;58692;43.212;27.908;2023-03-23T15:25:23;10.36;88.24
71039;SHT30;58692;43.212;27.908;2023-03-23T15:28:06;10.33;88.48
71039;SHT30;58692;43.212;27.908;2023-03-23T15:30:35;10.36;88.70
71039;SHT30;58692;43.212;27.908;2023-03-23T15:33:05;10.42;88.84
71039;SHT30;58692;43.212;27.908;2023-03-23T15:35:36;10.28;89.12
71039;SHT30;58692;43.212;27.908;2023-03-23T15:38:04;10.29;89.20
71039;SHT30;58692;43.212;27.908;2023-03-23T15:40:37;10.36;89.21
71039;SHT30;58692;43.212;27.908;2023-03-23T15:46:02;10.53;89.03
71039;SHT30;58692;43.212;27.908;2023-03-23T15:48:31;10.52;88.86
71039;SHT30;58692;43.212;27.908;2023-03-23T15:51:02;10.45;88.88
71039;SHT30;58692;43.212;27.908;2023-03-23T15:53:33;10.36;89.30
71039;SHT30;58692;43.212;27.908;2023-03-23T15:56:01;10.36;88.98
71039;SHT30;58692;43.212;27.908;2023-03-23T15:58:27;10.42;89.16
71039;SHT30;58692;43.212;27.908;2023-03-23T16:00:53;10.46;89.26
71039;SHT30;58692;43.212;27.908;2023-03-23T16:03:23;10.43;88.67
71039;SHT30;58692;43.212;27.908;2023-03-23T16:05:53;10.45;88.77
71039;SHT30;58692;43.212;27.908;2023-03-23T16:08:19;10.46;88.84
71039;SHT30;58692;43.212;27.908;2023-03-23T16:10:44;10.43;88.69
71039;SHT30;58692;43.212;27.908;2023-03-23T16:13:10;10.46;88.70
71039;SHT30;58692;43.212;27.908;2023-03-23T16:15:36;10.50;88.69
71039;SHT30;58692;43.212;27.908;2023-03-23T16:18:01;10.62;88.47
71039;SHT30;58692;43.212;27.908;2023-03-23T16:20:29;10.63;88.23
71039;SHT30;58692;43.212;27.908;2023-03-23T16:22:55;10.60;88.23
71039;SHT30;58692;43.212;27.908;2023-03-23T16:25:20;10.59;88.29
71039;SHT30;58692;43.212;27.908;2023-03-23T16:27:46;10.56;87.96
71039;SHT30;58692;43.212;27.908;2023-03-23T16:30:25;10.57;88.27
71039;SHT30;58692;43.212;27.908;2023-03-23T16:32:52;10.59;88.30
71039;SHT30;58692;43.212;27.908;2023-03-23T16:35:23;10.50;88.09
71039;SHT30;58692;43.212;27.908;2023-03-23T16:37:55;10.21;88.83
71039;SHT30;58692;43.212;27.908;2023-03-23T16:40:21;9.99;89.97
71039;SHT30;58692;43.212;27.908;2023-03-23T16:42:47;9.91;90.31
71039;SHT30;58692;43.212;27.908;2023-03-23T16:45:16;9.91;90.80
71039;SHT30;58692;43.212;27.908;2023-03-23T16:47:42;9.94;90.77
71039;SHT30;58692;43.212;27.908;2023-03-23T16:50:11;9.99;90.85
71039;SHT30;58692;43.212;27.908;2023-03-23T16:52:44;10.09;90.49
71039;SHT30;58692;43.212;27.908;2023-03-23T16:55:12;10.06;90.60
71039;SHT30;58692;43.212;27.908;2023-03-23T16:57:40;10.03;90.81
71039;SHT30;58692;43.212;27.908;2023-03-23T17:00:08;10.11;90.55
71039;SHT30;58692;43.212;27.908;2023-03-23T17:02:36;10.15;90.44
71039;SHT30;58692;43.212;27.908;2023-03-23T17:05:02;10.21;90.19
71039;SHT30;58692;43.212;27.908;2023-03-23T17:07:30;10.22;90.06
71039;SHT30;58692;43.212;27.908;2023-03-23T17:09:55;10.25;89.94
71039;SHT30;58692;43.212;27.908;2023-03-23T17:12:36;10.22;90.01
71039;SHT30;58692;43.212;27.908;2023-03-23T17:15:06;10.16;90.36
71039;SHT30;58692;43.212;27.908;2023-03-23T17:17:35;10.13;90.15
71039;SHT30;58692;43.212;27.908;2023-03-23T17:20:02;10.19;90.03
71039;SHT30;58692;43.212;27.908;2023-03-23T17:22:29;10.23;89.93